KPIA/PIA METAR and TAF weather

Enter ICAO airport designator
Station Type Date Time Source
KPIA METAR 2021/04/13 06:54 UTC NOAA

KPIA 130654Z 24003KT 10SM CLR 06/01 A3006 RMK AO2 SLP179 T00610011


Station Type Date Time Source
KPIA Decoded METAR 2021/04/13 06:54 UTC NOAA

GREATER PEORIA REGIONAL AIRPORT , IL, United States (KPIA) 40-40N 89-41W 205M
Apr 13, 2021 - 02:54 AM EDT / 2021.04.13 0654 UTC
Wind: from the WSW (240 degrees) at 3 MPH (3 KT):0
Visibility: 10 mile(s):0
Sky conditions: clear
Temperature: 43.0 F (6.1 C)
Dew Point: 34.0 F (1.1 C)
Relative Humidity: 70%
Pressure (altimeter): 30.06 in. Hg (1017 hPa)
ob: KPIA 130654Z 24003KT 10SM CLR 06/01 A3006 RMK AO2 SLP179 T00610011
cycle: 7

Station Type Date Time Source
KPIA TAF 2021/04/13 06:22 UTC NOAA

TAF KPIA 130520Z 1306/1406 28007KT P6SM FEW250
FM131700 27011G17KT P6SM SCT250
FM140100 26004KT P6SM SCT250

Example: see airport list